sensor_id;sensor_type;location;lat;lon;timestamp;temperature;humidity
75321;DHT22;63920;52.130;5.584;2022-10-30T00:02:16;15.90;89.90
75321;DHT22;63920;52.130;5.584;2022-10-30T00:04:41;15.90;89.80
75321;DHT22;63920;52.130;5.584;2022-10-30T00:07:07;15.90;89.80
75321;DHT22;63920;52.130;5.584;2022-10-30T00:09:32;15.90;90.00
75321;DHT22;63920;52.130;5.584;2022-10-30T00:11:58;15.90;90.10
75321;DHT22;63920;52.130;5.584;2022-10-30T00:14:23;16.00;90.00
75321;DHT22;63920;52.130;5.584;2022-10-30T00:16:49;15.90;90.00
75321;DHT22;63920;52.130;5.584;2022-10-30T00:19:14;15.90;89.90
75321;DHT22;63920;52.130;5.584;2022-10-30T00:21:40;15.90;89.80
75321;DHT22;63920;52.130;5.584;2022-10-30T00:24:06;16.00;89.70
75321;DHT22;63920;52.130;5.584;2022-10-30T00:26:31;15.90;89.80
75321;DHT22;63920;52.130;5.584;2022-10-30T00:28:58;16.00;89.40
75321;DHT22;63920;52.130;5.584;2022-10-30T00:31:23;15.90;89.70
75321;DHT22;63920;52.130;5.584;2022-10-30T00:33:53;15.90;89.70
75321;DHT22;63920;52.130;5.584;2022-10-30T00:36:20;15.90;90.00
75321;DHT22;63920;52.130;5.584;2022-10-30T00:38:46;15.80;89.70
75321;DHT22;63920;52.130;5.584;2022-10-30T00:41:17;15.80;89.90
75321;DHT22;63920;52.130;5.584;2022-10-30T00:43:43;15.70;90.00
75321;DHT22;63920;52.130;5.584;2022-10-30T00:46:37;15.80;89.90
75321;DHT22;63920;52.130;5.584;2022-10-30T00:49:15;15.70;90.00
75321;DHT22;63920;52.130;5.584;2022-10-30T00:51:45;15.70;90.10
75321;DHT22;63920;52.130;5.584;2022-10-30T00:54:15;15.70;90.10
75321;DHT22;63920;52.130;5.584;2022-10-30T00:56:42;15.70;90.10
75321;DHT22;63920;52.130;5.584;2022-10-30T00:59:14;15.70;90.30
75321;DHT22;63920;52.130;5.584;2022-10-30T01:01:42;15.60;90.20
75321;DHT22;63920;52.130;5.584;2022-10-30T01:04:09;15.70;90.00
75321;DHT22;63920;52.130;5.584;2022-10-30T01:06:37;15.70;90.10
75321;DHT22;63920;52.130;5.584;2022-10-30T01:09:04;15.70;90.20
75321;DHT22;63920;52.130;5.584;2022-10-30T01:11:30;15.60;90.10
75321;DHT22;63920;52.130;5.584;2022-10-30T01:13:58;15.60;90.20
75321;DHT22;63920;52.130;5.584;2022-10-30T01:19:20;15.60;90.30
75321;DHT22;63920;52.130;5.584;2022-10-30T01:30:17;15.50;90.40
75321;DHT22;63920;52.130;5.584;2022-10-30T01:40:29;15.30;90.70
75321;DHT22;63920;52.130;5.584;2022-10-30T01:42:56;15.30;90.70
75321;DHT22;63920;52.130;5.584;2022-10-30T01:45:59;15.20;90.70
75321;DHT22;63920;52.130;5.584;2022-10-30T01:49:03;15.20;90.80
75321;DHT22;63920;52.130;5.584;2022-10-30T01:51:56;15.30;90.80
75321;DHT22;63920;52.130;5.584;2022-10-30T01:57:02;15.30;90.80
75321;DHT22;63920;52.130;5.584;2022-10-30T01:59:39;15.20;90.80
75321;DHT22;63920;52.130;5.584;2022-10-30T02:02:06;15.20;90.80
75321;DHT22;63920;52.130;5.584;2022-10-30T02:04:32;15.20;90.70
75321;DHT22;63920;52.130;5.584;2022-10-30T02:06:58;15.10;90.80
75321;DHT22;63920;52.130;5.584;2022-10-30T02:09:25;15.10;91.00
75321;DHT22;63920;52.130;5.584;2022-10-30T02:11:51;15.10;91.10
75321;DHT22;63920;52.130;5.584;2022-10-30T02:14:22;15.10;90.90
75321;DHT22;63920;52.130;5.584;2022-10-30T02:16:51;15.00;91.10
75321;DHT22;63920;52.130;5.584;2022-10-30T02:19:17;14.90;91.20
75321;DHT22;63920;52.130;5.584;2022-10-30T02:21:43;14.90;91.20
75321;DHT22;63920;52.130;5.584;2022-10-30T02:24:08;14.90;91.40
75321;DHT22;63920;52.130;5.584;2022-10-30T02:26:34;14.90;91.30
75321;DHT22;63920;52.130;5.584;2022-10-30T02:28:59;15.00;91.50
75321;DHT22;63920;52.130;5.584;2022-10-30T02:31:25;14.90;91.40
75321;DHT22;63920;52.130;5.584;2022-10-30T02:33:50;14.90;91.40
75321;DHT22;63920;52.130;5.584;2022-10-30T02:36:16;14.90;91.20
75321;DHT22;63920;52.130;5.584;2022-10-30T02:38:42;14.90;91.30
75321;DHT22;63920;52.130;5.584;2022-10-30T02:41:09;14.90;91.20
75321;DHT22;63920;52.130;5.584;2022-10-30T02:43:34;14.90;91.20
75321;DHT22;63920;52.130;5.584;2022-10-30T02:46:00;14.90;91.20
75321;DHT22;63920;52.130;5.584;2022-10-30T02:48:26;14.90;91.20
75321;DHT22;63920;52.130;5.584;2022-10-30T02:50:51;14.90;91.30
75321;DHT22;63920;52.130;5.584;2022-10-30T02:53:17;14.90;91.30
75321;DHT22;63920;52.130;5.584;2022-10-30T02:55:42;14.90;91.30
75321;DHT22;63920;52.130;5.584;2022-10-30T02:58:08;14.90;91.30
75321;DHT22;63920;52.130;5.584;2022-10-30T03:00:33;14.80;91.30
75321;DHT22;63920;52.130;5.584;2022-10-30T03:02:59;14.90;91.40
75321;DHT22;63920;52.130;5.584;2022-10-30T03:05:24;14.80;91.40
75321;DHT22;63920;52.130;5.584;2022-10-30T03:07:50;14.70;91.60
75321;DHT22;63920;52.130;5.584;2022-10-30T03:10:17;14.70;91.60
75321;DHT22;63920;52.130;5.584;2022-10-30T03:12:43;14.70;91.40
75321;DHT22;63920;52.130;5.584;2022-10-30T03:15:09;14.70;91.50
75321;DHT22;63920;52.130;5.584;2022-10-30T03:17:34;14.70;91.60
75321;DHT22;63920;52.130;5.584;2022-10-30T03:20:00;14.70;91.50
75321;DHT22;63920;52.130;5.584;2022-10-30T03:22:26;14.70;91.50
75321;DHT22;63920;52.130;5.584;2022-10-30T03:24:51;14.70;91.50
75321;DHT22;63920;52.130;5.584;2022-10-30T03:27:17;14.70;91.60
75321;DHT22;63920;52.130;5.584;2022-10-30T03:29:42;14.60;91.60
75321;DHT22;63920;52.130;5.584;2022-10-30T03:32:09;14.60;91.80
75321;DHT22;63920;52.130;5.584;2022-10-30T03:34:35;14.70;91.80
75321;DHT22;63920;52.130;5.584;2022-10-30T03:37:01;14.70;91.70
75321;DHT22;63920;52.130;5.584;2022-10-30T03:39:26;14.70;91.70
75321;DHT22;63920;52.130;5.584;2022-10-30T03:41:52;14.60;91.60
75321;DHT22;63920;52.130;5.584;2022-10-30T03:44:18;14.60;91.60
75321;DHT22;63920;52.130;5.584;2022-10-30T03:46:43;14.60;91.70
75321;DHT22;63920;52.130;5.584;2022-10-30T03:49:09;14.60;91.80
75321;DHT22;63920;52.130;5.584;2022-10-30T03:51:34;14.50;92.20
75321;DHT22;63920;52.130;5.584;2022-10-30T03:54:00;14.50;91.90
75321;DHT22;63920;52.130;5.584;2022-10-30T03:56:25;14.50;92.00
75321;DHT22;63920;52.130;5.584;2022-10-30T03:58:51;14.50;91.90
75321;DHT22;63920;52.130;5.584;2022-10-30T04:01:16;14.50;91.90
75321;DHT22;63920;52.130;5.584;2022-10-30T04:03:42;14.50;92.00
75321;DHT22;63920;52.130;5.584;2022-10-30T04:06:07;14.50;91.90
75321;DHT22;63920;52.130;5.584;2022-10-30T04:08:33;14.50;92.10
75321;DHT22;63920;52.130;5.584;2022-10-30T04:10:59;14.50;91.90
75321;DHT22;63920;52.130;5.584;2022-10-30T04:13:24;14.40;92.00
75321;DHT22;63920;52.130;5.584;2022-10-30T04:15:50;14.40;91.90
75321;DHT22;63920;52.130;5.584;2022-10-30T04:18:16;14.40;92.00
75321;DHT22;63920;52.130;5.584;2022-10-30T04:20:43;14.30;92.20
75321;DHT22;63920;52.130;5.584;2022-10-30T04:23:13;14.40;92.30
75321;DHT22;63920;52.130;5.584;2022-10-30T04:25:39;14.40;92.10
75321;DHT22;63920;52.130;5.584;2022-10-30T04:28:05;14.30;92.20
75321;DHT22;63920;52.130;5.584;2022-10-30T04:30:31;14.30;92.20
75321;DHT22;63920;52.130;5.584;2022-10-30T04:33:00;14.30;92.20
75321;DHT22;63920;52.130;5.584;2022-10-30T04:35:28;14.20;92.30
75321;DHT22;63920;52.130;5.584;2022-10-30T04:37:59;14.30;92.20
75321;DHT22;63920;52.130;5.584;2022-10-30T04:40:31;14.40;92.40
75321;DHT22;63920;52.130;5.584;2022-10-30T04:42:57;14.40;92.30
75321;DHT22;63920;52.130;5.584;2022-10-30T04:45:24;14.40;92.30
75321;DHT22;63920;52.130;5.584;2022-10-30T04:47:49;14.40;92.20
75321;DHT22;63920;52.130;5.584;2022-10-30T04:50:15;14.40;92.30
75321;DHT22;63920;52.130;5.584;2022-10-30T04:52:41;14.50;92.30
75321;DHT22;63920;52.130;5.584;2022-10-30T04:55:08;14.40;92.00
75321;DHT22;63920;52.130;5.584;2022-10-30T04:57:34;14.40;92.20
75321;DHT22;63920;52.130;5.584;2022-10-30T05:00:04;14.40;92.00
75321;DHT22;63920;52.130;5.584;2022-10-30T05:02:30;14.30;92.50
75321;DHT22;63920;52.130;5.584;2022-10-30T05:04:56;14.30;92.20
75321;DHT22;63920;52.130;5.584;2022-10-30T05:07:21;14.30;92.20
75321;DHT22;63920;52.130;5.584;2022-10-30T05:09:47;14.30;92.20
75321;DHT22;63920;52.130;5.584;2022-10-30T05:12:12;14.30;92.30
75321;DHT22;63920;52.130;5.584;2022-10-30T05:14:38;14.30;92.30
75321;DHT22;63920;52.130;5.584;2022-10-30T05:17:03;14.20;92.30
75321;DHT22;63920;52.130;5.584;2022-10-30T05:19:29;14.20;92.30
75321;DHT22;63920;52.130;5.584;2022-10-30T05:21:54;14.10;92.30
75321;DHT22;63920;52.130;5.584;2022-10-30T05:24:20;14.10;92.40
75321;DHT22;63920;52.130;5.584;2022-10-30T05:26:45;14.10;92.30
75321;DHT22;63920;52.130;5.584;2022-10-30T05:29:12;14.00;92.30
75321;DHT22;63920;52.130;5.584;2022-10-30T05:31:37;14.00;92.50
75321;DHT22;63920;52.130;5.584;2022-10-30T05:34:03;13.90;92.30
75321;DHT22;63920;52.130;5.584;2022-10-30T05:36:29;13.90;92.50
75321;DHT22;63920;52.130;5.584;2022-10-30T05:38:54;13.90;92.60
75321;DHT22;63920;52.130;5.584;2022-10-30T05:41:20;13.80;92.60
75321;DHT22;63920;52.130;5.584;2022-10-30T05:43:45;13.80;92.30
75321;DHT22;63920;52.130;5.584;2022-10-30T05:46:11;13.90;92.60
75321;DHT22;63920;52.130;5.584;2022-10-30T05:48:36;13.80;92.80
75321;DHT22;63920;52.130;5.584;2022-10-30T05:51:02;13.80;92.70
75321;DHT22;63920;52.130;5.584;2022-10-30T05:53:28;13.90;92.70
75321;DHT22;63920;52.130;5.584;2022-10-30T05:55:56;13.90;92.60
75321;DHT22;63920;52.130;5.584;2022-10-30T05:58:22;13.90;92.60
75321;DHT22;63920;52.130;5.584;2022-10-30T06:00:48;13.80;92.70
75321;DHT22;63920;52.130;5.584;2022-10-30T06:03:13;13.80;92.80
75321;DHT22;63920;52.130;5.584;2022-10-30T06:05:39;13.90;93.00
75321;DHT22;63920;52.130;5.584;2022-10-30T06:08:06;13.90;92.80
75321;DHT22;63920;52.130;5.584;2022-10-30T06:10:32;13.90;92.60
75321;DHT22;63920;52.130;5.584;2022-10-30T06:13:00;13.90;92.70
75321;DHT22;63920;52.130;5.584;2022-10-30T06:15:26;13.90;92.90
75321;DHT22;63920;52.130;5.584;2022-10-30T06:17:52;13.90;92.90
75321;DHT22;63920;52.130;5.584;2022-10-30T06:20:20;13.90;92.80
75321;DHT22;63920;52.130;5.584;2022-10-30T06:22:53;13.90;93.00
75321;DHT22;63920;52.130;5.584;2022-10-30T06:25:20;13.90;93.00
75321;DHT22;63920;52.130;5.584;2022-10-30T06:27:45;13.80;92.90
75321;DHT22;63920;52.130;5.584;2022-10-30T06:30:11;13.90;93.00
75321;DHT22;63920;52.130;5.584;2022-10-30T06:32:37;13.90;93.00
75321;DHT22;63920;52.130;5.584;2022-10-30T06:35:02;13.90;92.90
75321;DHT22;63920;52.130;5.584;2022-10-30T06:37:28;13.90;92.80
75321;DHT22;63920;52.130;5.584;2022-10-30T06:39:54;13.90;92.70
75321;DHT22;63920;52.130;5.584;2022-10-30T06:42:20;13.80;92.70
75321;DHT22;63920;52.130;5.584;2022-10-30T06:44:45;13.70;92.70
75321;DHT22;63920;52.130;5.584;2022-10-30T06:47:13;13.70;92.90
75321;DHT22;63920;52.130;5.584;2022-10-30T06:49:39;13.70;93.00
75321;DHT22;63920;52.130;5.584;2022-10-30T06:52:04;13.70;93.20
75321;DHT22;63920;52.130;5.584;2022-10-30T06:54:30;13.60;92.90
75321;DHT22;63920;52.130;5.584;2022-10-30T06:56:55;13.60;93.10
75321;DHT22;63920;52.130;5.584;2022-10-30T06:59:21;13.60;92.90
75321;DHT22;63920;52.130;5.584;2022-10-30T07:01:46;13.60;92.90
75321;DHT22;63920;52.130;5.584;2022-10-30T07:04:12;13.60;93.00
75321;DHT22;63920;52.130;5.584;2022-10-30T07:06:37;13.60;93.10
75321;DHT22;63920;52.130;5.584;2022-10-30T07:09:03;13.50;92.80
75321;DHT22;63920;52.130;5.584;2022-10-30T07:11:28;13.50;93.10
75321;DHT22;63920;52.130;5.584;2022-10-30T07:13:54;13.50;93.30
75321;DHT22;63920;52.130;5.584;2022-10-30T07:16:20;13.60;93.20
75321;DHT22;63920;52.130;5.584;2022-10-30T07:18:45;13.50;93.30
75321;DHT22;63920;52.130;5.584;2022-10-30T07:21:11;13.50;93.20
75321;DHT22;63920;52.130;5.584;2022-10-30T07:23:36;13.50;92.60
75321;DHT22;63920;52.130;5.584;2022-10-30T07:26:02;13.50;92.20
75321;DHT22;63920;52.130;5.584;2022-10-30T07:28:28;13.50;91.90
75321;DHT22;63920;52.130;5.584;2022-10-30T07:30:53;13.60;91.80
75321;DHT22;63920;52.130;5.584;2022-10-30T07:33:19;13.60;91.80
75321;DHT22;63920;52.130;5.584;2022-10-30T07:35:44;13.60;91.80
75321;DHT22;63920;52.130;5.584;2022-10-30T07:38:11;13.60;92.30
75321;DHT22;63920;52.130;5.584;2022-10-30T07:40:37;13.70;92.70
75321;DHT22;63920;52.130;5.584;2022-10-30T07:43:03;13.70;92.90
75321;DHT22;63920;52.130;5.584;2022-10-30T07:45:29;13.80;93.10
75321;DHT22;63920;52.130;5.584;2022-10-30T07:47:55;13.90;92.90
75321;DHT22;63920;52.130;5.584;2022-10-30T07:50:21;13.90;93.00
75321;DHT22;63920;52.130;5.584;2022-10-30T07:52:47;13.90;93.00
75321;DHT22;63920;52.130;5.584;2022-10-30T07:55:13;13.90;93.00
75321;DHT22;63920;52.130;5.584;2022-10-30T07:57:40;14.00;93.00
75321;DHT22;63920;52.130;5.584;2022-10-30T08:00:08;14.00;93.00
75321;DHT22;63920;52.130;5.584;2022-10-30T08:02:34;14.10;92.90
75321;DHT22;63920;52.130;5.584;2022-10-30T08:05:00;14.10;93.00
75321;DHT22;63920;52.130;5.584;2022-10-30T08:07:30;14.10;93.20
75321;DHT22;63920;52.130;5.584;2022-10-30T08:09:55;14.20;93.20
75321;DHT22;63920;52.130;5.584;2022-10-30T08:12:21;14.30;93.30
75321;DHT22;63920;52.130;5.584;2022-10-30T08:14:46;14.40;93.00
75321;DHT22;63920;52.130;5.584;2022-10-30T08:17:13;14.40;92.90
75321;DHT22;63920;52.130;5.584;2022-10-30T08:19:39;14.50;92.90
75321;DHT22;63920;52.130;5.584;2022-10-30T08:22:04;14.50;93.00
75321;DHT22;63920;52.130;5.584;2022-10-30T08:24:30;14.60;93.00
75321;DHT22;63920;52.130;5.584;2022-10-30T08:26:56;14.70;93.10
75321;DHT22;63920;52.130;5.584;2022-10-30T08:29:21;14.70;93.00
75321;DHT22;63920;52.130;5.584;2022-10-30T08:31:48;14.80;92.90
75321;DHT22;63920;52.130;5.584;2022-10-30T08:34:13;14.90;92.70
75321;DHT22;63920;52.130;5.584;2022-10-30T08:36:39;15.00;92.70
75321;DHT22;63920;52.130;5.584;2022-10-30T08:39:04;15.00;92.50
75321;DHT22;63920;52.130;5.584;2022-10-30T08:41:30;15.10;92.30
75321;DHT22;63920;52.130;5.584;2022-10-30T08:43:55;15.20;92.40
75321;DHT22;63920;52.130;5.584;2022-10-30T08:46:21;15.20;92.20
75321;DHT22;63920;52.130;5.584;2022-10-30T08:48:46;15.30;92.30
75321;DHT22;63920;52.130;5.584;2022-10-30T08:51:12;15.40;92.20
75321;DHT22;63920;52.130;5.584;2022-10-30T08:53:38;15.50;92.10
75321;DHT22;63920;52.130;5.584;2022-10-30T08:56:04;15.60;92.10
75321;DHT22;63920;52.130;5.584;2022-10-30T08:58:30;15.70;92.10
75321;DHT22;63920;52.130;5.584;2022-10-30T09:00:56;15.80;92.00
75321;DHT22;63920;52.130;5.584;2022-10-30T09:03:21;15.90;91.70
75321;DHT22;63920;52.130;5.584;2022-10-30T09:05:47;16.00;91.50
75321;DHT22;63920;52.130;5.584;2022-10-30T09:08:13;16.10;91.60
75321;DHT22;63920;52.130;5.584;2022-10-30T09:10:40;16.20;91.70
75321;DHT22;63920;52.130;5.584;2022-10-30T09:13:07;16.30;91.60
75321;DHT22;63920;52.130;5.584;2022-10-30T09:15:33;16.40;91.30
75321;DHT22;63920;52.130;5.584;2022-10-30T09:18:01;16.50;91.40
75321;DHT22;63920;52.130;5.584;2022-10-30T09:20:27;16.60;90.90
75321;DHT22;63920;52.130;5.584;2022-10-30T09:22:53;16.60;91.00
75321;DHT22;63920;52.130;5.584;2022-10-30T09:25:19;16.70;90.70
75321;DHT22;63920;52.130;5.584;2022-10-30T09:27:44;16.80;90.30
75321;DHT22;63920;52.130;5.584;2022-10-30T09:30:11;16.80;90.50
75321;DHT22;63920;52.130;5.584;2022-10-30T09:32:36;16.90;90.30
75321;DHT22;63920;52.130;5.584;2022-10-30T09:35:02;16.90;90.00
75321;DHT22;63920;52.130;5.584;2022-10-30T09:37:28;17.00;90.30
75321;DHT22;63920;52.130;5.584;2022-10-30T09:39:54;17.10;89.90
75321;DHT22;63920;52.130;5.584;2022-10-30T09:50:59;17.30;89.90
75321;DHT22;63920;52.130;5.584;2022-10-30T09:56:57;17.40;90.10
75321;DHT22;63920;52.130;5.584;2022-10-30T10:02:13;17.50;88.50
75321;DHT22;63920;52.130;5.584;2022-10-30T10:04:51;17.50;88.50
75321;DHT22;63920;52.130;5.584;2022-10-30T10:07:33;17.50;88.50
75321;DHT22;63920;52.130;5.584;2022-10-30T10:10:04;17.50;89.00
75321;DHT22;63920;52.130;5.584;2022-10-30T10:12:43;17.50;89.50
75321;DHT22;63920;52.130;5.584;2022-10-30T10:18:11;17.60;88.50
75321;DHT22;63920;52.130;5.584;2022-10-30T10:20:42;17.50;88.20
75321;DHT22;63920;52.130;5.584;2022-10-30T10:23:34;17.50;88.70
75321;DHT22;63920;52.130;5.584;2022-10-30T10:26:15;17.50;88.60
75321;DHT22;63920;52.130;5.584;2022-10-30T10:31:30;17.60;89.30
75321;DHT22;63920;52.130;5.584;2022-10-30T10:34:13;17.60;89.40
75321;DHT22;63920;52.130;5.584;2022-10-30T10:42:18;17.90;88.40
75321;DHT22;63920;52.130;5.584;2022-10-30T10:44:58;17.90;88.30
75321;DHT22;63920;52.130;5.584;2022-10-30T10:48:15;18.00;88.10
75321;DHT22;63920;52.130;5.584;2022-10-30T10:51:09;18.10;87.70
75321;DHT22;63920;52.130;5.584;2022-10-30T10:53:41;18.20;87.70
75321;DHT22;63920;52.130;5.584;2022-10-30T10:56:08;18.20;88.10
75321;DHT22;63920;52.130;5.584;2022-10-30T10:58:54;18.40;85.50
75321;DHT22;63920;52.130;5.584;2022-10-30T11:01:32;18.40;86.50
75321;DHT22;63920;52.130;5.584;2022-10-30T11:04:27;18.30;86.60
75321;DHT22;63920;52.130;5.584;2022-10-30T11:06:55;18.40;85.80
75321;DHT22;63920;52.130;5.584;2022-10-30T11:09:23;18.50;85.40
75321;DHT22;63920;52.130;5.584;2022-10-30T11:11:53;18.50;85.50
75321;DHT22;63920;52.130;5.584;2022-10-30T11:14:25;18.40;85.90
75321;DHT22;63920;52.130;5.584;2022-10-30T11:19:30;18.40;86.60
75321;DHT22;63920;52.130;5.584;2022-10-30T11:21:57;18.40;86.10
75321;DHT22;63920;52.130;5.584;2022-10-30T11:24:33;18.40;86.30
75321;DHT22;63920;52.130;5.584;2022-10-30T11:30:02;18.50;86.60
75321;DHT22;63920;52.130;5.584;2022-10-30T11:32:30;18.60;85.10
75321;DHT22;63920;52.130;5.584;2022-10-30T11:37:34;18.80;85.00
75321;DHT22;63920;52.130;5.584;2022-10-30T11:40:15;18.80;84.30
75321;DHT22;63920;52.130;5.584;2022-10-30T11:45:36;19.00;84.70
75321;DHT22;63920;52.130;5.584;2022-10-30T11:48:09;19.00;83.80
75321;DHT22;63920;52.130;5.584;2022-10-30T11:50:35;19.20;82.80
75321;DHT22;63920;52.130;5.584;2022-10-30T11:53:10;19.10;83.70
75321;DHT22;63920;52.130;5.584;2022-10-30T11:55:44;19.20;83.50
75321;DHT22;63920;52.130;5.584;2022-10-30T11:58:23;19.10;82.60
75321;DHT22;63920;52.130;5.584;2022-10-30T12:01:20;19.10;83.80
75321;DHT22;63920;52.130;5.584;2022-10-30T12:03:46;19.10;84.00
75321;DHT22;63920;52.130;5.584;2022-10-30T12:06:27;19.20;83.90
75321;DHT22;63920;52.130;5.584;2022-10-30T12:09:16;19.20;84.00
75321;DHT22;63920;52.130;5.584;2022-10-30T12:11:45;19.20;83.50
75321;DHT22;63920;52.130;5.584;2022-10-30T12:14:22;19.10;83.80
75321;DHT22;63920;52.130;5.584;2022-10-30T12:16:54;19.20;84.20
75321;DHT22;63920;52.130;5.584;2022-10-30T12:19:22;19.20;83.90
75321;DHT22;63920;52.130;5.584;2022-10-30T12:21:50;19.20;83.60
75321;DHT22;63920;52.130;5.584;2022-10-30T12:24:31;19.20;84.20
75321;DHT22;63920;52.130;5.584;2022-10-30T12:27:01;19.30;83.90
75321;DHT22;63920;52.130;5.584;2022-10-30T12:29:56;19.40;82.60
75321;DHT22;63920;52.130;5.584;2022-10-30T12:32:27;19.30;83.10
75321;DHT22;63920;52.130;5.584;2022-10-30T12:35:07;19.20;82.50
75321;DHT22;63920;52.130;5.584;2022-10-30T12:37:38;19.20;83.00
75321;DHT22;63920;52.130;5.584;2022-10-30T12:40:15;19.20;83.30
75321;DHT22;63920;52.130;5.584;2022-10-30T12:45:40;19.30;83.90
75321;DHT22;63920;52.130;5.584;2022-10-30T12:54:07;19.10;83.80
75321;DHT22;63920;52.130;5.584;2022-10-30T12:56:41;19.10;84.50
75321;DHT22;63920;52.130;5.584;2022-10-30T13:04:44;19.10;84.30
75321;DHT22;63920;52.130;5.584;2022-10-30T13:07:20;19.10;84.20
75321;DHT22;63920;52.130;5.584;2022-10-30T13:12:37;19.20;84.50
75321;DHT22;63920;52.130;5.584;2022-10-30T13:17:51;19.30;83.50
75321;DHT22;63920;52.130;5.584;2022-10-30T13:20:17;19.30;84.00
75321;DHT22;63920;52.130;5.584;2022-10-30T13:23:14;19.30;83.60
75321;DHT22;63920;52.130;5.584;2022-10-30T13:26:07;19.40;83.60
75321;DHT22;63920;52.130;5.584;2022-10-30T13:28:57;19.30;83.90
75321;DHT22;63920;52.130;5.584;2022-10-30T13:36:34;19.30;84.60
75321;DHT22;63920;52.130;5.584;2022-10-30T13:39:23;19.30;84.60
75321;DHT22;63920;52.130;5.584;2022-10-30T13:44:53;19.50;83.40
75321;DHT22;63920;52.130;5.584;2022-10-30T13:47:36;19.40;83.60
75321;DHT22;63920;52.130;5.584;2022-10-30T13:50:28;19.40;83.50
75321;DHT22;63920;52.130;5.584;2022-10-30T13:52:58;19.20;83.80
75321;DHT22;63920;52.130;5.584;2022-10-30T13:55:28;19.30;84.90
75321;DHT22;63920;52.130;5.584;2022-10-30T13:58:15;19.30;84.00
75321;DHT22;63920;52.130;5.584;2022-10-30T14:03:27;19.10;84.30
75321;DHT22;63920;52.130;5.584;2022-10-30T14:11:27;19.10;85.00
75321;DHT22;63920;52.130;5.584;2022-10-30T14:13:55;19.10;85.40
75321;DHT22;63920;52.130;5.584;2022-10-30T14:16:38;19.10;85.00
75321;DHT22;63920;52.130;5.584;2022-10-30T14:19:09;19.00;85.40
75321;DHT22;63920;52.130;5.584;2022-10-30T14:26:36;18.80;85.10
75321;DHT22;63920;52.130;5.584;2022-10-30T14:32:00;18.90;86.20
75321;DHT22;63920;52.130;5.584;2022-10-30T14:37:16;19.00;85.80
75321;DHT22;63920;52.130;5.584;2022-10-30T14:39:48;19.00;85.50
75321;DHT22;63920;52.130;5.584;2022-10-30T14:42:41;18.90;85.00
75321;DHT22;63920;52.130;5.584;2022-10-30T14:45:25;19.00;85.70
75321;DHT22;63920;52.130;5.584;2022-10-30T14:54:01;18.90;85.60
75321;DHT22;63920;52.130;5.584;2022-10-30T14:56:48;18.90;85.60
75321;DHT22;63920;52.130;5.584;2022-10-30T15:05:20;19.00;84.70
75321;DHT22;63920;52.130;5.584;2022-10-30T15:08:32;19.10;85.10
75321;DHT22;63920;52.130;5.584;2022-10-30T15:11:09;19.00;83.90
75321;DHT22;63920;52.130;5.584;2022-10-30T15:13:47;19.00;84.60
75321;DHT22;63920;52.130;5.584;2022-10-30T15:16:15;18.90;85.90
75321;DHT22;63920;52.130;5.584;2022-10-30T15:19:06;18.90;84.90
75321;DHT22;63920;52.130;5.584;2022-10-30T15:21:34;18.90;85.30
75321;DHT22;63920;52.130;5.584;2022-10-30T15:24:00;18.80;85.40
75321;DHT22;63920;52.130;5.584;2022-10-30T15:26:34;18.80;85.80
75321;DHT22;63920;52.130;5.584;2022-10-30T15:29:01;18.80;85.90
75321;DHT22;63920;52.130;5.584;2022-10-30T15:31:28;18.80;86.20
75321;DHT22;63920;52.130;5.584;2022-10-30T15:33:54;18.80;86.20
75321;DHT22;63920;52.130;5.584;2022-10-30T15:36:23;18.80;86.50
75321;DHT22;63920;52.130;5.584;2022-10-30T15:39:12;18.70;86.60
75321;DHT22;63920;52.130;5.584;2022-10-30T15:41:43;18.70;86.60
75321;DHT22;63920;52.130;5.584;2022-10-30T15:44:13;18.70;86.80
75321;DHT22;63920;52.130;5.584;2022-10-30T15:46:46;18.60;86.60
75321;DHT22;63920;52.130;5.584;2022-10-30T15:55:57;18.50;87.40
75321;DHT22;63920;52.130;5.584;2022-10-30T15:59:03;18.50;88.10
75321;DHT22;63920;52.130;5.584;2022-10-30T16:04:39;18.30;88.60
75321;DHT22;63920;52.130;5.584;2022-10-30T16:07:25;18.30;89.10
75321;DHT22;63920;52.130;5.584;2022-10-30T16:09:59;18.30;89.20
75321;DHT22;63920;52.130;5.584;2022-10-30T16:12:52;18.20;89.40
75321;DHT22;63920;52.130;5.584;2022-10-30T16:15:30;18.10;89.50
75321;DHT22;63920;52.130;5.584;2022-10-30T16:18:22;18.10;89.80
75321;DHT22;63920;52.130;5.584;2022-10-30T16:20:55;18.10;90.10
75321;DHT22;63920;52.130;5.584;2022-10-30T16:23:21;18.10;90.00
75321;DHT22;63920;52.130;5.584;2022-10-30T16:25:53;18.00;90.00
75321;DHT22;63920;52.130;5.584;2022-10-30T16:30:48;17.90;90.50
75321;DHT22;63920;52.130;5.584;2022-10-30T16:33:15;17.90;90.40
75321;DHT22;63920;52.130;5.584;2022-10-30T16:35:43;17.90;90.30
75321;DHT22;63920;52.130;5.584;2022-10-30T16:38:10;17.90;90.70
75321;DHT22;63920;52.130;5.584;2022-10-30T16:40:36;17.80;90.50
75321;DHT22;63920;52.130;5.584;2022-10-30T16:43:03;17.80;90.60
75321;DHT22;63920;52.130;5.584;2022-10-30T16:48:00;17.70;90.50
75321;DHT22;63920;52.130;5.584;2022-10-30T16:50:33;17.70;90.50
75321;DHT22;63920;52.130;5.584;2022-10-30T16:55:31;17.70;90.40
75321;DHT22;63920;52.130;5.584;2022-10-30T16:57:58;17.70;90.20
75321;DHT22;63920;52.130;5.584;2022-10-30T17:00:26;17.60;90.10
75321;DHT22;63920;52.130;5.584;2022-10-30T17:02:52;17.60;90.30
75321;DHT22;63920;52.130;5.584;2022-10-30T17:05:30;17.40;90.10
75321;DHT22;63920;52.130;5.584;2022-10-30T17:08:28;17.50;90.10
75321;DHT22;63920;52.130;5.584;2022-10-30T17:11:02;17.50;90.20
75321;DHT22;63920;52.130;5.584;2022-10-30T17:18:40;17.40;90.40
75321;DHT22;63920;52.130;5.584;2022-10-30T17:21:09;17.50;90.30
75321;DHT22;63920;52.130;5.584;2022-10-30T17:23:35;17.40;90.40
75321;DHT22;63920;52.130;5.584;2022-10-30T17:26:08;17.30;90.60
75321;DHT22;63920;52.130;5.584;2022-10-30T17:28:36;17.20;90.70
75321;DHT22;63920;52.130;5.584;2022-10-30T17:33:42;17.20;91.00
75321;DHT22;63920;52.130;5.584;2022-10-30T17:36:08;17.20;91.00
75321;DHT22;63920;52.130;5.584;2022-10-30T17:38:34;17.20;90.80
75321;DHT22;63920;52.130;5.584;2022-10-30T17:41:00;17.20;90.90
75321;DHT22;63920;52.130;5.584;2022-10-30T17:43:28;17.20;90.80
75321;DHT22;63920;52.130;5.584;2022-10-30T17:45:55;17.20;91.00
75321;DHT22;63920;52.130;5.584;2022-10-30T17:48:23;17.10;90.90
75321;DHT22;63920;52.130;5.584;2022-10-30T17:50:49;17.10;90.80
75321;DHT22;63920;52.130;5.584;2022-10-30T17:53:19;17.10;90.90
75321;DHT22;63920;52.130;5.584;2022-10-30T17:55:53;17.10;90.90
75321;DHT22;63920;52.130;5.584;2022-10-30T17:58:20;17.00;91.10
75321;DHT22;63920;52.130;5.584;2022-10-30T18:00:45;17.10;91.00
75321;DHT22;63920;52.130;5.584;2022-10-30T18:03:11;17.00;91.00
75321;DHT22;63920;52.130;5.584;2022-10-30T18:05:37;17.00;91.10
75321;DHT22;63920;52.130;5.584;2022-10-30T18:08:05;16.90;91.00
75321;DHT22;63920;52.130;5.584;2022-10-30T18:10:30;16.80;91.10